sensor_id;sensor_type;location;lat;lon;timestamp;P1;durP1;ratioP1;P2;durP2;ratioP2
16845;SDS011;8539;53.188;8.696;2023-07-08T00:00:42;10.95;;;4.90;;
16845;SDS011;8539;53.188;8.696;2023-07-08T00:03:10;5.68;;;4.47;;
16845;SDS011;8539;53.188;8.696;2023-07-08T00:05:36;7.07;;;4.50;;
16845;SDS011;8539;53.188;8.696;2023-07-08T00:08:03;8.48;;;4.60;;
16845;SDS011;8539;53.188;8.696;2023-07-08T00:10:30;6.22;;;4.13;;
16845;SDS011;8539;53.188;8.696;2023-07-08T00:12:57;7.90;;;4.22;;
16845;SDS011;8539;53.188;8.696;2023-07-08T00:15:25;7.32;;;4.20;;
16845;SDS011;8539;53.188;8.696;2023-07-08T00:18:00;5.93;;;4.55;;
16845;SDS011;8539;53.188;8.696;2023-07-08T00:20:36;6.53;;;4.45;;
16845;SDS011;8539;53.188;8.696;2023-07-08T00:23:13;5.68;;;4.90;;
16845;SDS011;8539;53.188;8.696;2023-07-08T00:25:40;8.02;;;4.28;;
16845;SDS011;8539;53.188;8.696;2023-07-08T00:28:20;8.80;;;4.88;;
16845;SDS011;8539;53.188;8.696;2023-07-08T00:30:47;6.05;;;5.10;;
16845;SDS011;8539;53.188;8.696;2023-07-08T00:33:13;6.57;;;3.90;;
16845;SDS011;8539;53.188;8.696;2023-07-08T00:35:41;6.55;;;4.43;;
16845;SDS011;8539;53.188;8.696;2023-07-08T00:38:30;7.20;;;4.85;;
16845;SDS011;8539;53.188;8.696;2023-07-08T00:40:59;11.02;;;5.45;;
16845;SDS011;8539;53.188;8.696;2023-07-08T00:43:50;7.35;;;4.43;;
16845;SDS011;8539;53.188;8.696;2023-07-08T00:51:33;7.22;;;5.28;;
16845;SDS011;8539;53.188;8.696;2023-07-08T00:54:00;7.43;;;4.50;;
16845;SDS011;8539;53.188;8.696;2023-07-08T00:56:28;5.68;;;4.28;;
16845;SDS011;8539;53.188;8.696;2023-07-08T00:59:07;6.05;;;4.57;;
16845;SDS011;8539;53.188;8.696;2023-07-08T01:01:37;8.63;;;4.80;;
16845;SDS011;8539;53.188;8.696;2023-07-08T01:04:11;7.25;;;4.22;;
16845;SDS011;8539;53.188;8.696;2023-07-08T01:06:41;5.32;;;4.78;;
16845;SDS011;8539;53.188;8.696;2023-07-08T01:09:12;5.90;;;4.25;;
16845;SDS011;8539;53.188;8.696;2023-07-08T01:11:40;6.40;;;4.70;;
16845;SDS011;8539;53.188;8.696;2023-07-08T01:14:08;5.93;;;5.32;;
16845;SDS011;8539;53.188;8.696;2023-07-08T01:16:38;5.75;;;4.15;;
16845;SDS011;8539;53.188;8.696;2023-07-08T01:19:06;6.45;;;4.93;;
16845;SDS011;8539;53.188;8.696;2023-07-08T01:21:58;10.18;;;4.90;;
16845;SDS011;8539;53.188;8.696;2023-07-08T01:24:27;6.85;;;5.00;;
16845;SDS011;8539;53.188;8.696;2023-07-08T01:26:56;11.43;;;4.88;;
16845;SDS011;8539;53.188;8.696;2023-07-08T01:29:22;7.35;;;4.43;;
16845;SDS011;8539;53.188;8.696;2023-07-08T01:31:49;10.07;;;4.45;;
16845;SDS011;8539;53.188;8.696;2023-07-08T01:34:16;12.13;;;5.05;;
16845;SDS011;8539;53.188;8.696;2023-07-08T01:36:44;5.55;;;4.18;;
16845;SDS011;8539;53.188;8.696;2023-07-08T01:39:16;6.97;;;4.88;;
16845;SDS011;8539;53.188;8.696;2023-07-08T01:41:45;7.03;;;3.88;;
16845;SDS011;8539;53.188;8.696;2023-07-08T01:47:20;8.88;;;5.85;;
16845;SDS011;8539;53.188;8.696;2023-07-08T01:49:46;9.35;;;5.18;;
16845;SDS011;8539;53.188;8.696;2023-07-08T01:52:13;5.70;;;4.70;;
16845;SDS011;8539;53.188;8.696;2023-07-08T01:54:42;9.13;;;5.90;;
16845;SDS011;8539;53.188;8.696;2023-07-08T01:57:08;7.18;;;5.00;;
16845;SDS011;8539;53.188;8.696;2023-07-08T01:59:34;6.90;;;4.15;;
16845;SDS011;8539;53.188;8.696;2023-07-08T02:02:00;5.72;;;4.60;;
16845;SDS011;8539;53.188;8.696;2023-07-08T02:04:26;6.32;;;4.65;;
16845;SDS011;8539;53.188;8.696;2023-07-08T02:06:57;8.48;;;4.97;;
16845;SDS011;8539;53.188;8.696;2023-07-08T02:09:25;9.55;;;5.15;;
16845;SDS011;8539;53.188;8.696;2023-07-08T02:11:52;10.13;;;5.03;;
16845;SDS011;8539;53.188;8.696;2023-07-08T02:14:19;8.93;;;5.20;;
16845;SDS011;8539;53.188;8.696;2023-07-08T02:16:45;4.82;;;4.32;;
16845;SDS011;8539;53.188;8.696;2023-07-08T02:19:12;8.07;;;5.97;;
16845;SDS011;8539;53.188;8.696;2023-07-08T02:21:39;6.38;;;5.47;;
16845;SDS011;8539;53.188;8.696;2023-07-08T02:24:05;11.35;;;6.28;;
16845;SDS011;8539;53.188;8.696;2023-07-08T02:26:35;6.28;;;5.13;;
16845;SDS011;8539;53.188;8.696;2023-07-08T02:29:01;9.25;;;5.28;;
16845;SDS011;8539;53.188;8.696;2023-07-08T02:31:28;12.98;;;5.88;;
16845;SDS011;8539;53.188;8.696;2023-07-08T02:33:54;5.32;;;4.35;;
16845;SDS011;8539;53.188;8.696;2023-07-08T02:36:21;5.95;;;4.55;;
16845;SDS011;8539;53.188;8.696;2023-07-08T02:38:48;8.00;;;4.80;;
16845;SDS011;8539;53.188;8.696;2023-07-08T02:41:14;10.82;;;5.70;;
16845;SDS011;8539;53.188;8.696;2023-07-08T02:43:40;6.47;;;5.13;;
16845;SDS011;8539;53.188;8.696;2023-07-08T02:46:06;7.60;;;6.03;;
16845;SDS011;8539;53.188;8.696;2023-07-08T02:48:32;8.75;;;5.50;;
16845;SDS011;8539;53.188;8.696;2023-07-08T02:51:00;9.82;;;5.38;;
16845;SDS011;8539;53.188;8.696;2023-07-08T02:53:28;10.20;;;5.40;;
16845;SDS011;8539;53.188;8.696;2023-07-08T02:55:58;7.85;;;5.22;;
16845;SDS011;8539;53.188;8.696;2023-07-08T02:58:24;7.20;;;5.68;;
16845;SDS011;8539;53.188;8.696;2023-07-08T03:00:53;8.02;;;5.25;;
16845;SDS011;8539;53.188;8.696;2023-07-08T03:03:21;6.32;;;5.43;;
16845;SDS011;8539;53.188;8.696;2023-07-08T03:05:55;6.18;;;5.57;;
16845;SDS011;8539;53.188;8.696;2023-07-08T03:08:28;5.35;;;4.85;;
16845;SDS011;8539;53.188;8.696;2023-07-08T03:10:59;7.75;;;5.28;;
16845;SDS011;8539;53.188;8.696;2023-07-08T03:13:28;7.45;;;4.82;;
16845;SDS011;8539;53.188;8.696;2023-07-08T03:15:55;7.10;;;5.72;;
16845;SDS011;8539;53.188;8.696;2023-07-08T03:18:22;8.48;;;5.40;;
16845;SDS011;8539;53.188;8.696;2023-07-08T03:20:49;10.88;;;5.18;;
16845;SDS011;8539;53.188;8.696;2023-07-08T03:23:15;4.97;;;4.57;;
16845;SDS011;8539;53.188;8.696;2023-07-08T03:25:41;8.23;;;5.60;;
16845;SDS011;8539;53.188;8.696;2023-07-08T03:28:09;6.03;;;5.38;;
16845;SDS011;8539;53.188;8.696;2023-07-08T03:30:39;9.20;;;5.80;;
16845;SDS011;8539;53.188;8.696;2023-07-08T03:33:06;7.43;;;5.63;;
16845;SDS011;8539;53.188;8.696;2023-07-08T03:35:33;6.20;;;4.55;;
16845;SDS011;8539;53.188;8.696;2023-07-08T03:37:59;5.07;;;4.22;;
16845;SDS011;8539;53.188;8.696;2023-07-08T03:40:25;6.93;;;4.97;;
16845;SDS011;8539;53.188;8.696;2023-07-08T03:42:51;11.43;;;6.68;;
16845;SDS011;8539;53.188;8.696;2023-07-08T03:45:18;7.63;;;5.07;;
16845;SDS011;8539;53.188;8.696;2023-07-08T03:47:44;5.63;;;4.32;;
16845;SDS011;8539;53.188;8.696;2023-07-08T03:50:18;8.85;;;5.68;;
16845;SDS011;8539;53.188;8.696;2023-07-08T03:52:46;8.75;;;5.97;;
16845;SDS011;8539;53.188;8.696;2023-07-08T03:55:13;5.85;;;4.82;;
16845;SDS011;8539;53.188;8.696;2023-07-08T03:57:39;5.95;;;4.70;;
16845;SDS011;8539;53.188;8.696;2023-07-08T04:00:06;10.15;;;5.72;;
16845;SDS011;8539;53.188;8.696;2023-07-08T04:02:45;8.48;;;5.30;;
16845;SDS011;8539;53.188;8.696;2023-07-08T04:05:15;9.15;;;5.40;;
16845;SDS011;8539;53.188;8.696;2023-07-08T04:07:47;7.05;;;4.90;;
16845;SDS011;8539;53.188;8.696;2023-07-08T04:10:13;10.93;;;5.88;;
16845;SDS011;8539;53.188;8.696;2023-07-08T04:12:40;10.70;;;4.85;;
16845;SDS011;8539;53.188;8.696;2023-07-08T04:15:07;8.07;;;5.05;;
16845;SDS011;8539;53.188;8.696;2023-07-08T04:17:41;6.72;;;5.07;;
16845;SDS011;8539;53.188;8.696;2023-07-08T04:20:11;5.40;;;4.28;;
16845;SDS011;8539;53.188;8.696;2023-07-08T04:22:39;6.43;;;5.18;;
16845;SDS011;8539;53.188;8.696;2023-07-08T04:25:06;6.53;;;5.10;;
16845;SDS011;8539;53.188;8.696;2023-07-08T04:27:32;6.25;;;4.50;;
16845;SDS011;8539;53.188;8.696;2023-07-08T04:29:58;6.70;;;5.18;;
16845;SDS011;8539;53.188;8.696;2023-07-08T04:32:24;4.82;;;4.38;;
16845;SDS011;8539;53.188;8.696;2023-07-08T04:34:51;10.27;;;5.03;;
16845;SDS011;8539;53.188;8.696;2023-07-08T04:37:18;8.38;;;5.22;;
16845;SDS011;8539;53.188;8.696;2023-07-08T04:39:45;9.35;;;5.55;;
16845;SDS011;8539;53.188;8.696;2023-07-08T04:42:12;8.75;;;4.80;;
16845;SDS011;8539;53.188;8.696;2023-07-08T04:44:41;11.55;;;5.13;;
16845;SDS011;8539;53.188;8.696;2023-07-08T04:47:07;6.68;;;4.80;;
16845;SDS011;8539;53.188;8.696;2023-07-08T04:49:39;5.22;;;4.55;;
16845;SDS011;8539;53.188;8.696;2023-07-08T04:52:09;8.20;;;4.95;;
16845;SDS011;8539;53.188;8.696;2023-07-08T04:54:35;5.40;;;4.40;;
16845;SDS011;8539;53.188;8.696;2023-07-08T04:57:01;6.68;;;3.83;;
16845;SDS011;8539;53.188;8.696;2023-07-08T04:59:27;6.28;;;4.10;;
16845;SDS011;8539;53.188;8.696;2023-07-08T05:01:53;9.10;;;4.60;;
16845;SDS011;8539;53.188;8.696;2023-07-08T05:04:20;6.05;;;4.88;;
16845;SDS011;8539;53.188;8.696;2023-07-08T05:06:47;4.90;;;4.00;;
16845;SDS011;8539;53.188;8.696;2023-07-08T05:09:14;5.05;;;4.40;;
16845;SDS011;8539;53.188;8.696;2023-07-08T05:11:40;6.60;;;4.35;;
16845;SDS011;8539;53.188;8.696;2023-07-08T05:14:06;5.68;;;4.10;;
16845;SDS011;8539;53.188;8.696;2023-07-08T05:16:33;7.25;;;3.92;;
16845;SDS011;8539;53.188;8.696;2023-07-08T05:19:01;9.10;;;4.45;;
16845;SDS011;8539;53.188;8.696;2023-07-08T05:21:29;8.73;;;4.68;;
16845;SDS011;8539;53.188;8.696;2023-07-08T05:23:59;5.03;;;4.32;;
16845;SDS011;8539;53.188;8.696;2023-07-08T05:26:28;8.73;;;3.30;;
16845;SDS011;8539;53.188;8.696;2023-07-08T05:28:55;4.40;;;4.00;;
16845;SDS011;8539;53.188;8.696;2023-07-08T05:31:21;4.57;;;3.72;;
16845;SDS011;8539;53.188;8.696;2023-07-08T05:33:47;15.88;;;4.53;;
16845;SDS011;8539;53.188;8.696;2023-07-08T05:36:13;5.57;;;3.88;;
16845;SDS011;8539;53.188;8.696;2023-07-08T05:38:39;5.88;;;3.90;;
16845;SDS011;8539;53.188;8.696;2023-07-08T05:41:05;11.45;;;4.95;;
16845;SDS011;8539;53.188;8.696;2023-07-08T05:43:31;4.40;;;4.00;;
16845;SDS011;8539;53.188;8.696;2023-07-08T05:46:01;8.57;;;5.10;;
16845;SDS011;8539;53.188;8.696;2023-07-08T05:48:27;6.80;;;4.72;;
16845;SDS011;8539;53.188;8.696;2023-07-08T05:50:54;6.40;;;4.40;;
16845;SDS011;8539;53.188;8.696;2023-07-08T05:53:21;4.78;;;3.83;;
16845;SDS011;8539;53.188;8.696;2023-07-08T05:55:47;4.82;;;3.90;;
16845;SDS011;8539;53.188;8.696;2023-07-08T05:58:14;6.55;;;4.18;;
16845;SDS011;8539;53.188;8.696;2023-07-08T06:00:41;8.10;;;4.20;;
16845;SDS011;8539;53.188;8.696;2023-07-08T06:03:10;6.03;;;3.90;;
16845;SDS011;8539;53.188;8.696;2023-07-08T06:05:37;5.22;;;4.10;;
16845;SDS011;8539;53.188;8.696;2023-07-08T06:08:03;5.75;;;3.30;;
16845;SDS011;8539;53.188;8.696;2023-07-08T06:10:31;7.13;;;3.00;;
16845;SDS011;8539;53.188;8.696;2023-07-08T06:12:57;6.35;;;3.72;;
16845;SDS011;8539;53.188;8.696;2023-07-08T06:15:23;5.72;;;4.60;;
16845;SDS011;8539;53.188;8.696;2023-07-08T06:17:49;6.15;;;4.30;;
16845;SDS011;8539;53.188;8.696;2023-07-08T06:20:15;6.20;;;3.25;;
16845;SDS011;8539;53.188;8.696;2023-07-08T06:22:41;6.72;;;3.78;;
16845;SDS011;8539;53.188;8.696;2023-07-08T06:25:08;4.40;;;3.22;;
16845;SDS011;8539;53.188;8.696;2023-07-08T06:27:34;6.68;;;4.03;;
16845;SDS011;8539;53.188;8.696;2023-07-08T06:30:00;5.78;;;3.75;;
16845;SDS011;8539;53.188;8.696;2023-07-08T06:32:27;4.93;;;3.10;;
16845;SDS011;8539;53.188;8.696;2023-07-08T06:34:53;7.13;;;3.80;;
16845;SDS011;8539;53.188;8.696;2023-07-08T06:37:19;6.15;;;3.28;;
16845;SDS011;8539;53.188;8.696;2023-07-08T06:39:45;6.40;;;3.13;;
16845;SDS011;8539;53.188;8.696;2023-07-08T06:42:11;4.35;;;3.50;;
16845;SDS011;8539;53.188;8.696;2023-07-08T06:44:37;4.90;;;3.88;;
16845;SDS011;8539;53.188;8.696;2023-07-08T06:47:03;6.15;;;3.00;;
16845;SDS011;8539;53.188;8.696;2023-07-08T06:49:31;4.05;;;3.55;;
16845;SDS011;8539;53.188;8.696;2023-07-08T06:51:57;4.93;;;3.97;;
16845;SDS011;8539;53.188;8.696;2023-07-08T06:54:25;3.85;;;3.15;;
16845;SDS011;8539;53.188;8.696;2023-07-08T06:56:53;5.38;;;3.95;;
16845;SDS011;8539;53.188;8.696;2023-07-08T06:59:19;5.65;;;4.15;;
16845;SDS011;8539;53.188;8.696;2023-07-08T07:01:45;4.45;;;3.42;;
16845;SDS011;8539;53.188;8.696;2023-07-08T07:04:12;5.28;;;3.15;;
16845;SDS011;8539;53.188;8.696;2023-07-08T07:06:38;3.35;;;3.05;;
16845;SDS011;8539;53.188;8.696;2023-07-08T07:09:04;5.07;;;3.25;;
16845;SDS011;8539;53.188;8.696;2023-07-08T07:11:31;3.88;;;3.38;;
16845;SDS011;8539;53.188;8.696;2023-07-08T07:14:01;7.53;;;3.25;;
16845;SDS011;8539;53.188;8.696;2023-07-08T07:16:28;5.38;;;3.33;;
16845;SDS011;8539;53.188;8.696;2023-07-08T07:18:54;3.85;;;3.22;;
16845;SDS011;8539;53.188;8.696;2023-07-08T07:21:23;3.83;;;3.17;;
16845;SDS011;8539;53.188;8.696;2023-07-08T07:23:50;5.22;;;3.25;;
16845;SDS011;8539;53.188;8.696;2023-07-08T07:26:16;3.25;;;2.70;;
16845;SDS011;8539;53.188;8.696;2023-07-08T07:28:43;4.25;;;3.38;;
16845;SDS011;8539;53.188;8.696;2023-07-08T07:31:09;5.72;;;3.30;;
16845;SDS011;8539;53.188;8.696;2023-07-08T07:33:36;3.88;;;2.58;;
16845;SDS011;8539;53.188;8.696;2023-07-08T07:36:03;8.43;;;3.38;;
16845;SDS011;8539;53.188;8.696;2023-07-08T07:38:30;7.32;;;3.50;;
16845;SDS011;8539;53.188;8.696;2023-07-08T07:40:58;3.70;;;2.75;;
16845;SDS011;8539;53.188;8.696;2023-07-08T07:43:25;4.18;;;3.78;;
16845;SDS011;8539;53.188;8.696;2023-07-08T07:45:52;3.67;;;3.33;;
16845;SDS011;8539;53.188;8.696;2023-07-08T07:48:21;3.50;;;3.20;;
16845;SDS011;8539;53.188;8.696;2023-07-08T07:50:49;3.22;;;2.75;;
16845;SDS011;8539;53.188;8.696;2023-07-08T07:53:17;5.18;;;3.58;;
16845;SDS011;8539;53.188;8.696;2023-07-08T07:55:43;7.25;;;3.70;;
16845;SDS011;8539;53.188;8.696;2023-07-08T07:58:09;7.95;;;3.38;;
16845;SDS011;8539;53.188;8.696;2023-07-08T08:00:37;5.05;;;3.45;;
16845;SDS011;8539;53.188;8.696;2023-07-08T08:03:04;4.28;;;3.35;;
16845;SDS011;8539;53.188;8.696;2023-07-08T08:05:30;4.32;;;3.33;;
16845;SDS011;8539;53.188;8.696;2023-07-08T08:07:57;7.22;;;3.25;;
16845;SDS011;8539;53.188;8.696;2023-07-08T08:10:23;3.88;;;3.38;;
16845;SDS011;8539;53.188;8.696;2023-07-08T08:12:49;6.40;;;3.38;;
16845;SDS011;8539;53.188;8.696;2023-07-08T08:15:16;5.45;;;3.03;;
16845;SDS011;8539;53.188;8.696;2023-07-08T08:17:42;5.65;;;4.68;;
16845;SDS011;8539;53.188;8.696;2023-07-08T08:20:13;5.32;;;3.22;;
16845;SDS011;8539;53.188;8.696;2023-07-08T08:22:39;3.60;;;3.28;;
16845;SDS011;8539;53.188;8.696;2023-07-08T08:25:05;4.07;;;2.97;;
16845;SDS011;8539;53.188;8.696;2023-07-08T08:27:32;4.95;;;3.20;;
16845;SDS011;8539;53.188;8.696;2023-07-08T08:29:58;6.20;;;3.42;;
16845;SDS011;8539;53.188;8.696;2023-07-08T08:32:24;5.22;;;3.60;;
16845;SDS011;8539;53.188;8.696;2023-07-08T08:34:51;5.13;;;3.67;;
16845;SDS011;8539;53.188;8.696;2023-07-08T08:37:17;4.65;;;2.65;;
16845;SDS011;8539;53.188;8.696;2023-07-08T08:39:44;3.70;;;3.22;;
16845;SDS011;8539;53.188;8.696;2023-07-08T08:42:24;4.07;;;3.20;;
16845;SDS011;8539;53.188;8.696;2023-07-08T08:44:53;4.13;;;3.22;;
16845;SDS011;8539;53.188;8.696;2023-07-08T08:47:38;4.75;;;3.78;;
16845;SDS011;8539;53.188;8.696;2023-07-08T08:53:00;5.30;;;3.55;;
16845;SDS011;8539;53.188;8.696;2023-07-08T08:55:31;4.97;;;3.20;;
16845;SDS011;8539;53.188;8.696;2023-07-08T08:57:59;3.95;;;3.03;;
16845;SDS011;8539;53.188;8.696;2023-07-08T09:03:31;4.03;;;2.95;;
16845;SDS011;8539;53.188;8.696;2023-07-08T09:05:59;6.85;;;2.55;;
16845;SDS011;8539;53.188;8.696;2023-07-08T09:08:31;3.28;;;2.88;;
16845;SDS011;8539;53.188;8.696;2023-07-08T09:13:36;5.05;;;2.95;;
16845;SDS011;8539;53.188;8.696;2023-07-08T09:19:28;6.97;;;3.22;;
16845;SDS011;8539;53.188;8.696;2023-07-08T09:21:37;6.68;;;2.67;;
16845;SDS011;8539;53.188;8.696;2023-07-08T09:27:02;4.60;;;3.08;;
16845;SDS011;8539;53.188;8.696;2023-07-08T09:29:29;3.10;;;2.58;;
16845;SDS011;8539;53.188;8.696;2023-07-08T09:31:56;3.50;;;3.08;;
16845;SDS011;8539;53.188;8.696;2023-07-08T09:34:23;3.20;;;2.90;;
16845;SDS011;8539;53.188;8.696;2023-07-08T09:39:56;7.15;;;3.65;;
16845;SDS011;8539;53.188;8.696;2023-07-08T09:42:31;4.75;;;2.90;;
16845;SDS011;8539;53.188;8.696;2023-07-08T09:44:59;4.40;;;2.75;;
16845;SDS011;8539;53.188;8.696;2023-07-08T09:47:34;4.15;;;2.60;;
16845;SDS011;8539;53.188;8.696;2023-07-08T09:50:03;2.97;;;2.70;;
16845;SDS011;8539;53.188;8.696;2023-07-08T09:52:41;5.05;;;3.30;;
16845;SDS011;8539;53.188;8.696;2023-07-08T09:55:10;6.32;;;3.00;;
16845;SDS011;8539;53.188;8.696;2023-07-08T09:57:37;4.63;;;3.10;;
16845;SDS011;8539;53.188;8.696;2023-07-08T10:00:08;3.30;;;3.00;;
16845;SDS011;8539;53.188;8.696;2023-07-08T10:07:37;4.65;;;3.08;;
16845;SDS011;8539;53.188;8.696;2023-07-08T10:10:06;3.28;;;2.97;;
16845;SDS011;8539;53.188;8.696;2023-07-08T10:12:36;6.47;;;3.45;;
16845;SDS011;8539;53.188;8.696;2023-07-08T10:15:11;3.45;;;3.13;;
16845;SDS011;8539;53.188;8.696;2023-07-08T10:17:43;4.32;;;3.00;;
16845;SDS011;8539;53.188;8.696;2023-07-08T10:20:11;5.45;;;3.53;;
16845;SDS011;8539;53.188;8.696;2023-07-08T10:22:41;3.58;;;3.20;;
16845;SDS011;8539;53.188;8.696;2023-07-08T10:42:25;5.43;;;3.20;;
16845;SDS011;8539;53.188;8.696;2023-07-08T10:45:15;6.18;;;3.00;;
16845;SDS011;8539;53.188;8.696;2023-07-08T11:10:59;4.35;;;2.97;;
16845;SDS011;8539;53.188;8.696;2023-07-08T11:13:47;6.68;;;3.50;;
16845;SDS011;8539;53.188;8.696;2023-07-08T11:16:24;6.78;;;3.45;;
16845;SDS011;8539;53.188;8.696;2023-07-08T11:18:57;5.50;;;3.58;;
16845;SDS011;8539;53.188;8.696;2023-07-08T11:21:37;4.40;;;3.25;;
16845;SDS011;8539;53.188;8.696;2023-07-08T11:24:14;3.75;;;3.22;;
16845;SDS011;8539;53.188;8.696;2023-07-08T11:26:45;3.90;;;3.20;;
16845;SDS011;8539;53.188;8.696;2023-07-08T11:32:05;4.85;;;2.92;;
16845;SDS011;8539;53.188;8.696;2023-07-08T11:34:35;4.85;;;3.20;;
16845;SDS011;8539;53.188;8.696;2023-07-08T11:37:03;3.80;;;2.90;;
16845;SDS011;8539;53.188;8.696;2023-07-08T11:39:33;4.80;;;3.20;;
16845;SDS011;8539;53.188;8.696;2023-07-08T11:44:47;3.78;;;2.97;;
16845;SDS011;8539;53.188;8.696;2023-07-08T11:47:20;4.53;;;3.65;;
16845;SDS011;8539;53.188;8.696;2023-07-08T11:49:58;3.70;;;3.20;;
16845;SDS011;8539;53.188;8.696;2023-07-08T11:52:24;4.03;;;3.38;;
16845;SDS011;8539;53.188;8.696;2023-07-08T11:54:58;3.75;;;2.83;;
16845;SDS011;8539;53.188;8.696;2023-07-08T11:57:29;3.83;;;2.90;;
16845;SDS011;8539;53.188;8.696;2023-07-08T12:00:18;5.95;;;3.17;;
16845;SDS011;8539;53.188;8.696;2023-07-08T12:02:49;3.63;;;2.80;;
16845;SDS011;8539;53.188;8.696;2023-07-08T12:05:33;4.65;;;3.15;;
16845;SDS011;8539;53.188;8.696;2023-07-08T12:08:00;6.20;;;3.25;;
16845;SDS011;8539;53.188;8.696;2023-07-08T12:10:32;4.00;;;2.83;;
16845;SDS011;8539;53.188;8.696;2023-07-08T12:13:01;4.68;;;3.13;;
16845;SDS011;8539;53.188;8.696;2023-07-08T12:15:30;4.68;;;3.10;;
16845;SDS011;8539;53.188;8.696;2023-07-08T12:17:59;3.97;;;3.38;;
16845;SDS011;8539;53.188;8.696;2023-07-08T12:20:48;3.45;;;3.08;;
16845;SDS011;8539;53.188;8.696;2023-07-08T12:23:27;4.18;;;3.33;;
16845;SDS011;8539;53.188;8.696;2023-07-08T12:25:54;4.32;;;3.25;;
16845;SDS011;8539;53.188;8.696;2023-07-08T12:28:23;7.38;;;4.07;;
16845;SDS011;8539;53.188;8.696;2023-07-08T12:30:50;6.00;;;3.65;;
16845;SDS011;8539;53.188;8.696;2023-07-08T12:35:54;5.32;;;3.78;;
16845;SDS011;8539;53.188;8.696;2023-07-08T12:38:30;3.92;;;3.53;;
16845;SDS011;8539;53.188;8.696;2023-07-08T12:41:00;3.67;;;3.25;;
16845;SDS011;8539;53.188;8.696;2023-07-08T12:43:30;4.68;;;3.75;;
16845;SDS011;8539;53.188;8.696;2023-07-08T12:45:58;3.65;;;2.85;;
16845;SDS011;8539;53.188;8.696;2023-07-08T12:48:24;7.20;;;3.40;;
16845;SDS011;8539;53.188;8.696;2023-07-08T12:50:50;4.72;;;3.85;;
16845;SDS011;8539;53.188;8.696;2023-07-08T12:53:16;5.13;;;3.90;;
16845;SDS011;8539;53.188;8.696;2023-07-08T12:55:44;5.43;;;4.50;;
16845;SDS011;8539;53.188;8.696;2023-07-08T12:58:12;3.75;;;3.45;;
16845;SDS011;8539;53.188;8.696;2023-07-08T13:00:45;4.05;;;3.65;;
16845;SDS011;8539;53.188;8.696;2023-07-08T13:03:15;4.55;;;3.45;;
16845;SDS011;8539;53.188;8.696;2023-07-08T13:05:44;5.15;;;3.63;;
16845;SDS011;8539;53.188;8.696;2023-07-08T13:08:11;5.90;;;3.47;;
16845;SDS011;8539;53.188;8.696;2023-07-08T13:10:39;5.00;;;3.78;;
16845;SDS011;8539;53.188;8.696;2023-07-08T13:13:08;4.10;;;3.70;;
16845;SDS011;8539;53.188;8.696;2023-07-08T13:15:40;4.78;;;3.50;;
16845;SDS011;8539;53.188;8.696;2023-07-08T13:18:28;4.05;;;3.25;;
16845;SDS011;8539;53.188;8.696;2023-07-08T13:21:02;7.22;;;3.85;;
16845;SDS011;8539;53.188;8.696;2023-07-08T13:23:30;4.40;;;3.60;;
16845;SDS011;8539;53.188;8.696;2023-07-08T13:25:58;4.63;;;3.88;;
16845;SDS011;8539;53.188;8.696;2023-07-08T13:28:38;6.18;;;4.00;;
16845;SDS011;8539;53.188;8.696;2023-07-08T13:31:21;5.93;;;4.20;;
16845;SDS011;8539;53.188;8.696;2023-07-08T13:33:51;4.70;;;4.03;;
16845;SDS011;8539;53.188;8.696;2023-07-08T13:36:22;6.30;;;4.35;;
16845;SDS011;8539;53.188;8.696;2023-07-08T13:38:53;5.72;;;4.78;;
16845;SDS011;8539;53.188;8.696;2023-07-08T13:41:21;6.28;;;3.92;;
16845;SDS011;8539;53.188;8.696;2023-07-08T13:43:48;4.25;;;3.78;;
16845;SDS011;8539;53.188;8.696;2023-07-08T13:46:34;6.28;;;3.85;;
16845;SDS011;8539;53.188;8.696;2023-07-08T13:49:15;5.55;;;3.72;;
16845;SDS011;8539;53.188;8.696;2023-07-08T13:51:44;7.45;;;4.63;;
16845;SDS011;8539;53.188;8.696;2023-07-08T13:54:22;4.75;;;3.75;;
16845;SDS011;8539;53.188;8.696;2023-07-08T13:56:59;7.03;;;4.40;;
16845;SDS011;8539;53.188;8.696;2023-07-08T13:59:26;4.25;;;3.85;;
16845;SDS011;8539;53.188;8.696;2023-07-08T14:01:53;6.88;;;4.13;;
16845;SDS011;8539;53.188;8.696;2023-07-08T14:04:24;4.28;;;3.75;;
16845;SDS011;8539;53.188;8.696;2023-07-08T14:06:59;4.22;;;3.83;;
16845;SDS011;8539;53.188;8.696;2023-07-08T14:09:26;4.32;;;3.92;;
16845;SDS011;8539;53.188;8.696;2023-07-08T14:11:52;4.57;;;4.10;;
16845;SDS011;8539;53.188;8.696;2023-07-08T14:14:18;4.32;;;3.58;;
16845;SDS011;8539;53.188;8.696;2023-07-08T14:16:46;5.45;;;3.97;;
16845;SDS011;8539;53.188;8.696;2023-07-08T14:19:24;5.53;;;4.32;;
16845;SDS011;8539;53.188;8.696;2023-07-08T14:21:57;6.82;;;4.07;;
16845;SDS011;8539;53.188;8.696;2023-07-08T14:24:26;4.30;;;3.90;;
16845;SDS011;8539;53.188;8.696;2023-07-08T14:26:52;7.05;;;4.00;;
16845;SDS011;8539;53.188;8.696;2023-07-08T14:29:19;3.60;;;2.95;;
16845;SDS011;8539;53.188;8.696;2023-07-08T14:31:45;5.55;;;4.60;;
16845;SDS011;8539;53.188;8.696;2023-07-08T14:34:22;4.70;;;4.20;;
16845;SDS011;8539;53.188;8.696;2023-07-08T14:36:50;4.95;;;3.97;;
16845;SDS011;8539;53.188;8.696;2023-07-08T14:39:17;3.88;;;3.58;;
16845;SDS011;8539;53.188;8.696;2023-07-08T14:41:44;6.20;;;4.03;;
16845;SDS011;8539;53.188;8.696;2023-07-08T14:44:18;7.00;;;4.30;;
16845;SDS011;8539;53.188;8.696;2023-07-08T14:46:50;5.47;;;4.20;;
16845;SDS011;8539;53.188;8.696;2023-07-08T14:49:18;7.00;;;4.35;;
16845;SDS011;8539;53.188;8.696;2023-07-08T14:51:46;5.55;;;3.75;;
16845;SDS011;8539;53.188;8.696;2023-07-08T14:54:12;5.88;;;4.43;;
16845;SDS011;8539;53.188;8.696;2023-07-08T14:56:39;4.43;;;3.95;;
16845;SDS011;8539;53.188;8.696;2023-07-08T14:59:06;6.03;;;3.97;;
16845;SDS011;8539;53.188;8.696;2023-07-08T15:04:08;4.38;;;3.97;;
16845;SDS011;8539;53.188;8.696;2023-07-08T15:06:38;4.53;;;4.10;;
16845;SDS011;8539;53.188;8.696;2023-07-08T15:09:05;5.90;;;4.25;;
16845;SDS011;8539;53.188;8.696;2023-07-08T15:11:31;4.32;;;3.92;;
16845;SDS011;8539;53.188;8.696;2023-07-08T15:13:58;6.43;;;3.58;;
16845;SDS011;8539;53.188;8.696;2023-07-08T15:16:25;6.15;;;3.58;;
16845;SDS011;8539;53.188;8.696;2023-07-08T15:18:51;5.22;;;4.15;;
16845;SDS011;8539;53.188;8.696;2023-07-08T15:21:17;4.72;;;4.25;;
16845;SDS011;8539;53.188;8.696;2023-07-08T15:23:43;4.97;;;4.40;;
16845;SDS011;8539;53.188;8.696;2023-07-08T15:26:10;5.80;;;4.65;;
16845;SDS011;8539;53.188;8.696;2023-07-08T15:28:39;3.95;;;3.55;;
16845;SDS011;8539;53.188;8.696;2023-07-08T15:31:14;7.07;;;4.30;;
16845;SDS011;8539;53.188;8.696;2023-07-08T15:33:52;5.80;;;4.28;;
16845;SDS011;8539;53.188;8.696;2023-07-08T15:36:19;4.25;;;3.85;;
16845;SDS011;8539;53.188;8.696;2023-07-08T15:38:46;6.20;;;4.35;;
16845;SDS011;8539;53.188;8.696;2023-07-08T15:41:45;4.15;;;3.75;;
16845;SDS011;8539;53.188;8.696;2023-07-08T15:44:06;7.40;;;4.80;;
16845;SDS011;8539;53.188;8.696;2023-07-08T15:46:39;5.82;;;4.13;;
16845;SDS011;8539;53.188;8.696;2023-07-08T15:49:14;6.47;;;4.30;;
16845;SDS011;8539;53.188;8.696;2023-07-08T15:51:42;4.93;;;4.43;;
16845;SDS011;8539;53.188;8.696;2023-07-08T15:54:09;4.57;;;3.80;;
16845;SDS011;8539;53.188;8.696;2023-07-08T15:56:36;5.97;;;3.65;;
16845;SDS011;8539;53.188;8.696;2023-07-08T15:59:03;4.80;;;4.28;;
16845;SDS011;8539;53.188;8.696;2023-07-08T16:01:30;4.60;;;4.00;;
16845;SDS011;8539;53.188;8.696;2023-07-08T16:03:57;4.68;;;4.28;;
16845;SDS011;8539;53.188;8.696;2023-07-08T16:06:24;5.65;;;4.32;;
16845;SDS011;8539;53.188;8.696;2023-07-08T16:08:52;5.22;;;3.90;;
16845;SDS011;8539;53.188;8.696;2023-07-08T16:11:20;6.80;;;4.65;;
16845;SDS011;8539;53.188;8.696;2023-07-08T16:13:53;7.22;;;4.40;;
16845;SDS011;8539;53.188;8.696;2023-07-08T16:16:19;5.85;;;4.07;;
16845;SDS011;8539;53.188;8.696;2023-07-08T16:18:47;4.15;;;3.70;;
16845;SDS011;8539;53.188;8.696;2023-07-08T16:21:13;5.25;;;3.95;;
16845;SDS011;8539;53.188;8.696;2023-07-08T16:23:39;5.30;;;4.35;;
16845;SDS011;8539;53.188;8.696;2023-07-08T16:26:06;5.55;;;4.65;;
16845;SDS011;8539;53.188;8.696;2023-07-08T16:28:39;8.03;;;4.60;;
16845;SDS011;8539;53.188;8.696;2023-07-08T16:31:18;7.65;;;4.25;;
16845;SDS011;8539;53.188;8.696;2023-07-08T16:33:46;6.10;;;4.68;;